KHSB/HSB METAR and TAF weather

Enter ICAO airport designator
Station Type Date Time Source
KHSB METAR 2021/09/20 04:15 UTC NOAA

KHSB 200415Z AUTO 13006KT 10SM SCT015 22/20 A2999 RMK AO2 T02190195


Station Type Date Time Source
KHSB Decoded METAR 2021/09/20 04:15 UTC NOAA

Harrisburg, Harrisburg-Raleigh Airport, IL, United States (KHSB) 37-48-41N 088-32-57W
Sep 20, 2021 - 12:15 AM EDT / 2021.09.20 0415 UTC
Wind: from the SE (130 degrees) at 7 MPH (6 KT):0
Visibility: 10 mile(s):0
Sky conditions: partly cloudy
Temperature: 71.4 F (21.9 C)
Dew Point: 67.1 F (19.5 C)
Relative Humidity: 86%
Pressure (altimeter): 29.99 in. Hg (1015 hPa)
ob: KHSB 200415Z AUTO 13006KT 10SM SCT015 22/20 A2999 RMK AO2 T02190195
cycle: 4

Station Type Date Time Source
KHSB TAF UTC NOAA

Error!

Example: see airport list